Time;durP1;ratioP1;P1;durP2;ratioP2;P2;SDS_P1;SDS_P2;PMS_P1;PMS_P2;Temp;Humidity;BMP_temperature;BMP_pressure;BME280_temperature;BME280_humidity;BME280_pressure;Samples;Min_cycle;Max_cycle;Signal;HPM_P1;HPM_P2
2021/10/17 00:02:03;;;;;;;24.47;20.77;;;5.40;99.90;;;;;;5070987;28;20450;-57
2021/10/17 00:04:30;;;;;;;23.20;20.70;;;5.40;99.90;;;;;;5071245;28;20447;-56
2021/10/17 00:06:57;;;;;;;29.10;20.77;;;5.40;99.90;;;;;;5071071;28;21023;-57
2021/10/17 00:09:23;;;;;;;27.67;22.63;;;5.40;99.90;;;;;;5054764;28;20833;-57
2021/10/17 00:11:51;;;;;;;30.07;22.33;;;5.30;99.90;;;;;;5051173;28;20809;-57
2021/10/17 00:14:18;;;;;;;26.10;20.03;;;5.30;99.90;;;;;;5051201;28;20448;-56
2021/10/17 00:16:45;;;;;;;22.93;20.50;;;5.30;99.90;;;;;;5058632;28;20450;-58
2021/10/17 00:19:11;;;;;;;27.60;22.03;;;5.30;99.90;;;;;;5071332;28;20447;-60
2021/10/17 00:21:38;;;;;;;21.23;18.57;;;5.30;99.90;;;;;;5071457;28;20450;-57
2021/10/17 00:24:05;;;;;;;27.57;22.77;;;5.20;99.90;;;;;;5071293;28;20929;-57
2021/10/17 00:26:32;;;;;;;25.77;23.07;;;5.20;99.90;;;;;;5065789;28;20476;-61
2021/10/17 00:29:00;;;;;;;22.93;20.80;;;5.20;99.90;;;;;;5056722;28;20448;-57
2021/10/17 00:31:27;;;;;;;24.03;20.57;;;5.20;99.90;;;;;;5075006;28;20940;-58
2021/10/17 00:33:54;;;;;;;28.17;20.37;;;5.10;99.90;;;;;;5074804;28;20442;-62
2021/10/17 00:36:21;;;;;;;26.43;21.80;;;5.10;99.90;;;;;;5070682;28;20579;-57
2021/10/17 00:38:47;;;;;;;25.40;22.67;;;5.10;99.90;;;;;;5054666;28;20571;-58
2021/10/17 00:41:15;;;;;;;31.37;21.83;;;5.10;99.90;;;;;;5054735;28;20502;-61
2021/10/17 00:43:42;;;;;;;22.13;19.97;;;5.10;99.90;;;;;;5054904;28;20448;-63
2021/10/17 00:46:17;;;;;;;26.40;21.27;;;5.20;99.90;;;;;;5056352;28;20483;-57
2021/10/17 00:48:45;;;;;;;21.00;18.90;;;5.20;99.90;;;;;;5074423;28;20853;-62
2021/10/17 00:51:12;;;;;;;22.77;19.03;;;5.20;99.90;;;;;;5074698;28;20451;-56
2021/10/17 00:53:40;;;;;;;21.93;19.00;;;5.10;99.90;;;;;;5074463;28;20446;-57
2021/10/17 00:56:07;;;;;;;21.77;19.07;;;5.10;99.90;;;;;;5058785;28;20440;-61
2021/10/17 00:58:34;;;;;;;20.93;18.73;;;5.10;99.90;;;;;;5054179;28;20988;-57
2021/10/17 01:01:00;;;;;;;20.00;17.80;;;5.10;99.90;;;;;;5054391;28;20444;-61
2021/10/17 01:03:29;;;;;;;20.73;18.60;;;5.10;99.90;;;;;;5054353;28;20444;-61
2021/10/17 01:05:56;;;;;;;21.20;19.00;;;5.10;99.90;;;;;;5067793;28;20821;-58
2021/10/17 01:08:24;;;;;;;21.67;18.57;;;5.00;99.90;;;;;;5074023;28;20825;-60
2021/10/17 01:10:55;;;;;;;25.07;18.30;;;5.00;99.90;;;;;;5074288;28;20451;-57
2021/10/17 01:13:24;;;;;;;21.30;18.73;;;5.00;99.90;;;;;;5074068;28;20471;-63
2021/10/17 01:15:52;;;;;;;21.50;17.93;;;4.90;99.90;;;;;;5060904;28;20476;-58
2021/10/17 01:18:19;;;;;;;34.47;19.93;;;4.90;99.90;;;;;;5053828;28;20512;-58
2021/10/17 01:20:47;;;;;;;22.23;18.57;;;4.90;99.90;;;;;;5062506;28;20448;-57
2021/10/17 01:23:15;;;;;;;22.27;19.87;;;4.80;99.90;;;;;;5069552;28;20441;-59
2021/10/17 01:25:42;;;;;;;27.90;19.30;;;4.80;99.90;;;;;;5053705;28;20476;-61
2021/10/17 01:28:09;;;;;;;24.30;19.40;;;4.80;99.90;;;;;;5053399;28;20460;-60
2021/10/17 01:30:36;;;;;;;20.67;18.33;;;4.80;99.90;;;;;;5053626;28;20448;-61
2021/10/17 01:33:03;;;;;;;27.27;19.80;;;4.70;99.90;;;;;;5055956;28;20455;-60
2021/10/17 01:35:30;;;;;;;24.57;19.00;;;4.70;99.90;;;;;;5073577;28;20445;-58
2021/10/17 01:37:58;;;;;;;19.93;17.93;;;4.70;99.90;;;;;;5072704;28;20467;-57
2021/10/17 01:40:25;;;;;;;21.40;19.20;;;4.70;99.90;;;;;;5073159;28;20448;-57
2021/10/17 01:42:51;;;;;;;19.37;17.40;;;4.70;99.90;;;;;;5072508;28;20443;-58
2021/10/17 01:45:18;;;;;;;25.17;19.87;;;4.70;99.90;;;;;;5053284;28;20452;-60
2021/10/17 01:47:48;;;;;;;22.33;19.33;;;4.70;99.90;;;;;;5053225;28;20527;-61
2021/10/17 01:50:15;;;;;;;23.67;18.83;;;4.60;99.90;;;;;;5053320;28;20443;-58
2021/10/17 01:52:42;;;;;;;24.67;19.43;;;4.60;99.90;;;;;;5066037;28;20444;-61
2021/10/17 01:55:10;;;;;;;24.60;20.70;;;4.60;99.90;;;;;;5073113;28;20442;-60
2021/10/17 01:57:38;;;;;;;25.40;19.40;;;4.60;99.90;;;;;;5072795;28;20458;-60
2021/10/17 02:00:07;;;;;;;23.70;19.10;;;4.50;99.90;;;;;;5072633;28;20443;-58
2021/10/17 02:02:34;;;;;;;22.30;19.93;;;4.50;99.90;;;;;;5071334;28;20442;-58
2021/10/17 02:05:00;;;;;;;20.87;18.77;;;4.50;99.90;;;;;;5073052;28;20446;-60
2021/10/17 02:07:27;;;;;;;26.43;19.83;;;4.40;99.90;;;;;;5072940;28;20570;-55
2021/10/17 02:09:54;;;;;;;28.97;19.90;;;4.40;99.90;;;;;;5072591;28;20450;-57
2021/10/17 02:12:26;;;;;;;24.90;19.50;;;4.40;99.90;;;;;;5056974;28;20449;-61
2021/10/17 02:14:53;;;;;;;24.90;19.87;;;4.50;99.90;;;;;;5053026;28;20444;-63
2021/10/17 02:17:20;;;;;;;22.50;18.40;;;4.40;99.90;;;;;;5052604;28;20499;-57
2021/10/17 02:19:47;;;;;;;22.30;19.90;;;4.40;99.90;;;;;;5052435;28;20447;-56
2021/10/17 02:22:14;;;;;;;24.60;19.40;;;4.40;99.90;;;;;;5067168;28;20466;-56
2021/10/17 02:24:40;;;;;;;23.47;17.20;;;4.40;99.90;;;;;;5072418;28;20440;-57
2021/10/17 02:27:07;;;;;;;22.57;20.37;;;4.40;99.90;;;;;;5072200;28;20479;-59
2021/10/17 02:29:35;;;;;;;22.27;19.60;;;4.30;99.90;;;;;;5065729;28;20855;-57
2021/10/17 02:32:02;;;;;;;22.37;18.00;;;4.30;99.90;;;;;;5052394;28;20933;-57
2021/10/17 02:34:29;;;;;;;21.50;19.13;;;4.30;99.90;;;;;;5052188;28;20448;-57
2021/10/17 02:36:56;;;;;;;25.90;20.83;;;4.30;99.90;;;;;;5052576;28;20463;-57
2021/10/17 02:39:22;;;;;;;32.00;19.43;;;4.30;99.90;;;;;;5056447;28;20789;-59
2021/10/17 02:41:49;;;;;;;26.73;20.03;;;4.40;99.90;;;;;;5057055;28;20988;-62
2021/10/17 02:44:16;;;;;;;28.40;19.87;;;4.40;99.90;;;;;;5052283;28;20456;-59
2021/10/17 02:46:44;;;;;;;28.93;18.83;;;4.40;99.90;;;;;;5052157;28;20546;-61
2021/10/17 02:49:11;;;;;;;24.60;19.47;;;4.50;99.90;;;;;;5054199;28;20440;-58
2021/10/17 02:51:38;;;;;;;26.07;21.00;;;4.50;99.90;;;;;;5072175;28;20436;-61
2021/10/17 02:54:04;;;;;;;27.17;18.27;;;4.50;99.90;;;;;;5072151;28;20818;-58
2021/10/17 02:56:31;;;;;;;23.40;18.90;;;4.50;99.90;;;;;;5072165;28;20443;-57
2021/10/17 02:58:58;;;;;;;26.00;19.37;;;4.60;99.90;;;;;;5071066;28;20467;-58
2021/10/17 03:01:24;;;;;;;22.57;17.13;;;4.50;99.90;;;;;;5051879;28;20444;-59
2021/10/17 03:03:52;;;;;;;24.97;18.77;;;4.60;99.90;;;;;;5052194;28;20452;-57
2021/10/17 03:06:24;;;;;;;24.63;19.40;;;4.60;99.90;;;;;;5052100;28;20484;-57
2021/10/17 03:08:51;;;;;;;21.93;19.60;;;4.60;99.90;;;;;;5051785;28;20980;-61
2021/10/17 03:11:17;;;;;;;22.87;19.77;;;4.60;99.90;;;;;;5071242;28;20815;-59
2021/10/17 03:13:44;;;;;;;25.17;18.87;;;4.60;99.90;;;;;;5072002;28;20448;-60
2021/10/17 03:16:11;;;;;;;19.50;17.27;;;4.60;99.90;;;;;;5072114;28;20440;-60
2021/10/17 03:18:37;;;;;;;23.07;18.17;;;4.60;99.90;;;;;;5071731;28;20482;-59
2021/10/17 03:21:05;;;;;;;25.13;17.80;;;4.70;99.90;;;;;;5070270;28;20959;-60
2021/10/17 03:23:32;;;;;;;23.50;17.40;;;4.70;99.90;;;;;;5071900;28;20443;-61
2021/10/17 03:25:59;;;;;;;20.27;17.00;;;4.70;99.90;;;;;;5071849;28;20478;-60
2021/10/17 03:28:25;;;;;;;23.73;16.60;;;4.70;99.90;;;;;;5062243;28;20802;-58
2021/10/17 03:30:54;;;;;;;26.53;18.53;;;4.70;99.90;;;;;;5051900;28;20481;-60
2021/10/17 03:33:21;;;;;;;23.20;17.07;;;4.60;99.90;;;;;;5051879;28;20942;-61
2021/10/17 03:35:47;;;;;;;22.70;16.60;;;4.60;99.90;;;;;;5052583;28;20448;-57
2021/10/17 03:38:15;;;;;;;22.73;15.50;;;4.60;99.90;;;;;;5071356;28;20466;-54
2021/10/17 03:40:42;;;;;;;27.50;18.50;;;4.50;99.90;;;;;;5071728;28;20439;-55
2021/10/17 03:43:09;;;;;;;22.30;17.90;;;4.50;99.90;;;;;;5071713;28;20451;-58
2021/10/17 03:45:35;;;;;;;25.50;20.13;;;4.40;99.90;;;;;;5071784;28;20835;-55
2021/10/17 03:48:02;;;;;;;23.23;19.43;;;4.30;99.90;;;;;;5051597;28;20495;-58
2021/10/17 03:50:29;;;;;;;20.73;18.40;;;4.30;99.90;;;;;;5052343;28;20474;-61
2021/10/17 03:52:55;;;;;;;23.03;17.77;;;4.30;99.90;;;;;;5051951;28;20892;-57
2021/10/17 03:55:24;;;;;;;26.50;18.67;;;4.30;99.90;;;;;;5051873;28;20451;-56
2021/10/17 03:57:50;;;;;;;26.83;19.10;;;4.20;99.90;;;;;;5069023;28;20963;-57
2021/10/17 04:00:17;;;;;;;25.57;19.50;;;4.20;99.90;;;;;;5071959;28;20480;-60
2021/10/17 04:02:44;;;;;;;23.60;16.90;;;4.20;99.90;;;;;;5073672;28;20443;-57
2021/10/17 04:05:10;;;;;;;20.77;18.57;;;4.10;99.90;;;;;;5075031;28;20447;-55
2021/10/17 04:07:37;;;;;;;24.50;17.63;;;4.10;99.90;;;;;;5059432;28;20490;-54
2021/10/17 04:10:05;;;;;;;24.00;17.67;;;4.10;99.90;;;;;;5074626;28;20482;-60
2021/10/17 04:12:33;;;;;;;22.70;18.07;;;4.10;99.90;;;;;;5075006;28;20805;-62
2021/10/17 04:15:00;;;;;;;28.20;19.27;;;4.10;99.90;;;;;;5075055;28;20443;-55
2021/10/17 04:17:27;;;;;;;24.43;16.93;;;4.00;99.90;;;;;;5066151;28;20463;-59
2021/10/17 04:19:54;;;;;;;27.27;19.53;;;4.00;99.90;;;;;;5074759;28;20843;-61
2021/10/17 04:22:21;;;;;;;28.20;21.73;;;4.10;99.90;;;;;;5074622;28;20797;-59
2021/10/17 04:24:48;;;;;;;24.00;18.13;;;4.10;99.90;;;;;;5074635;28;20809;-58
2021/10/17 04:27:14;;;;;;;25.70;19.33;;;4.10;99.90;;;;;;5062359;28;20479;-61
2021/10/17 04:29:42;;;;;;;22.13;18.30;;;4.10;99.90;;;;;;5054328;28;20799;-61
2021/10/17 04:32:09;;;;;;;25.37;18.83;;;4.10;99.90;;;;;;5054483;28;20463;-59
2021/10/17 04:34:37;;;;;;;30.80;19.97;;;4.10;99.90;;;;;;5054457;28;20795;-60
2021/10/17 04:37:06;;;;;;;28.57;19.73;;;4.10;99.90;;;;;;5064279;28;20871;-59
2021/10/17 04:39:34;;;;;;;23.10;18.30;;;4.20;99.90;;;;;;5074170;28;20454;-61
2021/10/17 04:42:01;;;;;;;32.13;21.77;;;4.20;99.90;;;;;;5074329;28;20439;-62
2021/10/17 04:44:28;;;;;;;26.80;19.73;;;4.30;99.90;;;;;;5071692;28;20942;-60
2021/10/17 04:46:56;;;;;;;21.30;18.30;;;4.30;99.90;;;;;;5054154;28;20479;-61
2021/10/17 04:49:25;;;;;;;23.03;18.80;;;4.40;99.90;;;;;;5053886;28;20448;-60
2021/10/17 04:51:52;;;;;;;18.53;16.53;;;4.50;99.90;;;;;;5054251;28;20456;-59
2021/10/17 04:54:18;;;;;;;22.47;18.60;;;4.50;99.90;;;;;;5054732;28;20443;-59
2021/10/17 04:56:45;;;;;;;22.00;17.50;;;4.60;99.90;;;;;;5073797;28;20478;-59
2021/10/17 04:59:13;;;;;;;23.07;16.77;;;4.60;99.90;;;;;;5073869;28;20454;-59
2021/10/17 05:01:40;;;;;;;22.87;17.70;;;4.70;99.90;;;;;;5074021;28;20447;-57
2021/10/17 05:04:08;;;;;;;24.97;16.90;;;4.70;99.90;;;;;;5074036;28;20782;-60
2021/10/17 05:06:35;;;;;;;21.50;16.20;;;4.80;99.90;;;;;;5054074;28;20856;-60
2021/10/17 05:09:01;;;;;;;20.30;16.13;;;4.90;99.90;;;;;;5053507;28;20452;-60
2021/10/17 05:11:28;;;;;;;22.77;17.30;;;4.90;99.90;;;;;;5053788;28;20456;-56
2021/10/17 05:13:55;;;;;;;19.73;14.97;;;5.00;99.90;;;;;;5053663;28;20447;-61
2021/10/17 05:16:21;;;;;;;17.60;15.80;;;5.10;99.90;;;;;;5070418;28;20948;-60
2021/10/17 05:18:48;;;;;;;20.17;15.50;;;5.10;99.90;;;;;;5073334;28;20479;-60
2021/10/17 05:21:16;;;;;;;19.37;16.10;;;5.20;99.90;;;;;;5073692;28;20951;-62
2021/10/17 05:23:43;;;;;;;17.10;15.40;;;5.20;99.90;;;;;;5073571;28;20444;-61
2021/10/17 05:26:10;;;;;;;20.10;16.07;;;5.30;99.90;;;;;;5057877;28;20448;-62
2021/10/17 05:28:36;;;;;;;15.90;14.30;;;5.30;99.90;;;;;;5053258;28;20484;-61
2021/10/17 05:31:04;;;;;;;16.27;14.13;;;5.40;99.90;;;;;;5053361;28;20455;-64
2021/10/17 05:33:31;;;;;;;20.83;14.63;;;5.40;99.90;;;;;;5060295;28;20475;-62
2021/10/17 05:35:58;;;;;;;17.70;14.80;;;5.50;99.90;;;;;;5073041;28;20447;-60
2021/10/17 05:38:26;;;;;;;16.50;14.50;;;5.60;99.90;;;;;;5072878;28;20462;-61
2021/10/17 05:40:52;;;;;;;24.30;16.20;;;5.60;99.90;;;;;;5071204;28;20443;-60
2021/10/17 05:43:19;;;;;;;16.83;14.97;;;5.70;99.90;;;;;;5053109;28;20812;-59
2021/10/17 05:45:46;;;;;;;20.33;13.83;;;5.70;99.90;;;;;;5053171;28;20446;-61
2021/10/17 05:48:13;;;;;;;19.17;14.20;;;5.80;99.90;;;;;;5052798;28;20487;-64
2021/10/17 05:50:39;;;;;;;17.17;13.60;;;5.90;99.90;;;;;;5052853;28;20455;-61
2021/10/17 05:53:06;;;;;;;16.10;14.50;;;5.90;99.90;;;;;;5068635;28;20447;-62
2021/10/17 05:55:34;;;;;;;15.83;13.40;;;5.90;99.90;;;;;;5072942;28;20455;-62
2021/10/17 05:58:01;;;;;;;19.30;15.13;;;5.90;99.90;;;;;;5072612;28;20455;-62
2021/10/17 06:00:28;;;;;;;18.77;16.07;;;5.90;99.90;;;;;;5072786;28;20534;-63
2021/10/17 06:02:55;;;;;;;14.50;13.10;;;6.00;99.90;;;;;;5058331;28;20486;-64
2021/10/17 06:05:22;;;;;;;16.63;15.13;;;6.00;99.90;;;;;;5052645;28;20852;-64
2021/10/17 06:07:48;;;;;;;17.83;15.07;;;6.00;99.90;;;;;;5052330;28;20487;-63
2021/10/17 06:10:15;;;;;;;15.83;14.33;;;6.10;99.90;;;;;;5052526;28;20440;-63
2021/10/17 06:12:43;;;;;;;16.30;14.37;;;6.10;99.90;;;;;;5064469;28;20448;-64
2021/10/17 06:15:11;;;;;;;15.67;14.17;;;6.10;99.90;;;;;;5072564;28;20447;-63
2021/10/17 06:17:38;;;;;;;18.27;16.20;;;6.20;99.90;;;;;;5072363;28;20471;-63
2021/10/17 06:20:06;;;;;;;17.87;14.50;;;6.30;99.90;;;;;;5072269;28;20439;-60
2021/10/17 06:22:33;;;;;;;18.97;16.27;;;6.30;99.90;;;;;;5061527;28;20449;-61
2021/10/17 06:25:00;;;;;;;16.93;15.27;;;6.40;99.90;;;;;;5051856;28;20447;-63
2021/10/17 06:27:28;;;;;;;19.43;14.27;;;6.40;99.90;;;;;;5052212;28;20491;-63
2021/10/17 06:29:56;;;;;;;19.03;15.40;;;6.50;99.90;;;;;;5052112;28;20459;-62
2021/10/17 06:32:23;;;;;;;12.80;11.50;;;6.60;99.90;;;;;;5060932;28;20443;-63
2021/10/17 06:34:49;;;;;;;13.33;12.03;;;6.60;99.90;;;;;;5072354;28;20466;-61
2021/10/17 06:37:16;;;;;;;17.90;15.40;;;6.70;99.90;;;;;;5072055;28;20462;-62
2021/10/17 06:39:43;;;;;;;18.03;16.23;;;6.70;99.90;;;;;;5067930;28;20455;-63
2021/10/17 06:42:10;;;;;;;14.47;13.07;;;6.80;99.90;;;;;;5072141;28;20443;-64
2021/10/17 06:44:37;;;;;;;18.27;15.77;;;6.90;99.90;;;;;;5071761;28;20455;-63
2021/10/17 06:47:05;;;;;;;15.20;13.63;;;7.00;99.90;;;;;;5071824;28;20463;-64
2021/10/17 06:49:32;;;;;;;14.20;12.77;;;7.10;99.90;;;;;;5071619;28;20443;-62
2021/10/17 06:51:59;;;;;;;13.33;12.00;;;7.20;99.90;;;;;;5071941;28;20454;-62
2021/10/17 06:54:25;;;;;;;15.87;14.17;;;7.20;99.90;;;;;;5071813;28;20451;-63
2021/10/17 06:56:52;;;;;;;17.10;15.47;;;7.30;99.90;;;;;;5071777;28;20443;-64
2021/10/17 06:59:19;;;;;;;15.27;14.03;;;7.30;99.90;;;;;;5071586;28;20447;-64
2021/10/17 07:01:46;;;;;;;16.47;14.87;;;7.40;99.90;;;;;;5071928;28;20454;-64
2021/10/17 07:04:14;;;;;;;21.90;13.67;;;7.50;99.90;;;;;;5071826;28;20541;-62
2021/10/17 07:06:41;;;;;;;16.40;14.70;;;7.60;99.90;;;;;;5071646;28;20466;-65
2021/10/17 07:09:08;;;;;;;18.43;15.37;;;7.70;99.90;;;;;;5071453;28;20483;-64
2021/10/17 07:11:34;;;;;;;17.67;15.87;;;7.80;99.90;;;;;;5071696;28;20447;-62
2021/10/17 07:14:01;;;;;;;15.30;13.90;;;8.00;99.90;;;;;;5071550;28;20443;-64
2021/10/17 07:16:28;;;;;;;15.40;14.00;;;8.10;99.90;;;;;;5071596;28;20451;-63
2021/10/17 07:18:54;;;;;;;19.67;16.63;;;8.10;99.90;;;;;;5071252;28;20474;-63
2021/10/17 07:21:23;;;;;;;16.80;15.20;;;8.20;99.90;;;;;;5071545;28;20443;-63
2021/10/17 07:23:49;;;;;;;16.87;15.43;;;8.10;99.90;;;;;;5071641;28;20448;-64
2021/10/17 07:26:16;;;;;;;16.00;14.60;;;8.10;99.90;;;;;;5071537;28;20439;-63
2021/10/17 07:28:43;;;;;;;15.30;13.90;;;8.20;99.90;;;;;;5071139;28;20475;-61
2021/10/17 07:31:10;;;;;;;15.83;14.20;;;8.40;99.90;;;;;;5071472;28;20813;-64
2021/10/17 07:33:37;;;;;;;16.20;14.83;;;8.50;99.90;;;;;;5071444;28;20454;-64
2021/10/17 07:36:04;;;;;;;15.70;14.40;;;8.60;99.90;;;;;;5071292;28;20982;-64
2021/10/17 07:38:32;;;;;;;15.57;14.10;;;8.70;99.90;;;;;;5075150;28;20466;-61
2021/10/17 07:40:59;;;;;;;17.03;15.53;;;8.80;99.90;;;;;;5075521;28;20855;-62
2021/10/17 07:43:26;;;;;;;18.07;16.40;;;9.00;99.90;;;;;;5075436;28;20439;-62
2021/10/17 07:45:52;;;;;;;17.23;15.53;;;9.00;99.90;;;;;;5075282;28;20450;-65
2021/10/17 07:48:19;;;;;;;16.23;14.97;;;9.00;99.90;;;;;;5075054;28;20973;-63
2021/10/17 07:50:46;;;;;;;17.03;15.47;;;9.10;99.90;;;;;;5075287;28;20443;-63
2021/10/17 07:53:13;;;;;;;18.50;16.90;;;9.30;99.90;;;;;;5075260;28;20447;-63
2021/10/17 07:55:41;;;;;;;17.17;15.73;;;9.50;99.90;;;;;;5073657;28;20458;-62
2021/10/17 07:58:08;;;;;;;17.97;15.60;;;9.60;99.90;;;;;;5073310;28;20466;-63
2021/10/17 08:00:36;;;;;;;18.30;16.60;;;9.80;99.90;;;;;;5059162;28;20475;-62
2021/10/17 08:03:03;;;;;;;20.50;17.40;;;10.00;99.90;;;;;;5070840;28;20462;-62
2021/10/17 08:05:30;;;;;;;17.97;16.50;;;10.20;99.90;;;;;;5064269;28;20452;-63
2021/10/17 08:07:56;;;;;;;18.60;17.07;;;10.40;99.90;;;;;;5054678;28;20480;-64
2021/10/17 08:10:23;;;;;;;19.53;17.80;;;10.50;99.90;;;;;;5066229;28;21002;-63
2021/10/17 08:12:51;;;;;;;19.27;17.87;;;10.70;99.90;;;;;;5074864;28;20446;-63
2021/10/17 08:15:18;;;;;;;20.47;18.60;;;10.70;99.90;;;;;;5074918;28;20451;-62
2021/10/17 08:17:45;;;;;;;19.60;18.13;;;10.70;99.90;;;;;;5074383;28;20879;-64
2021/10/17 08:20:12;;;;;;;19.17;17.67;;;10.80;99.90;;;;;;5071820;28;20439;-62
2021/10/17 08:22:39;;;;;;;19.37;18.07;;;11.00;99.90;;;;;;5074708;28;20450;-63
2021/10/17 08:25:06;;;;;;;19.90;18.50;;;11.00;99.90;;;;;;5074507;28;20446;-63
2021/10/17 08:27:33;;;;;;;20.83;18.93;;;11.00;99.90;;;;;;5074464;28;20490;-63
2021/10/17 08:30:03;;;;;;;20.97;19.47;;;11.10;99.90;;;;;;5066927;28;20455;-64
2021/10/17 08:32:29;;;;;;;20.37;18.77;;;11.20;99.90;;;;;;5055111;28;20444;-63
2021/10/17 08:34:56;;;;;;;21.10;19.50;;;11.30;99.90;;;;;;5054459;28;20445;-64
2021/10/17 08:37:23;;;;;;;20.13;18.87;;;11.40;99.90;;;;;;5054151;28;20464;-64
2021/10/17 08:39:49;;;;;;;21.60;19.70;;;11.40;99.90;;;;;;5054156;28;20444;-65
2021/10/17 08:42:16;;;;;;;22.10;20.60;;;11.60;99.90;;;;;;5054304;28;20448;-64
2021/10/17 08:44:43;;;;;;;21.00;19.80;;;11.60;99.90;;;;;;5054142;28;20443;-65
2021/10/17 08:47:13;;;;;;;21.10;19.70;;;11.70;99.90;;;;;;5054832;28;20471;-62
2021/10/17 08:49:41;;;;;;;20.27;18.97;;;12.10;99.90;;;;;;5073939;28;20987;-64
2021/10/17 08:52:10;;;;;;;20.53;19.20;;;12.20;99.90;;;;;;5074150;28;20847;-64
2021/10/17 08:54:38;;;;;;;20.30;18.70;;;12.30;99.90;;;;;;5072291;28;20542;-64
2021/10/17 08:57:05;;;;;;;20.27;19.07;;;12.50;99.90;;;;;;5053937;28;20521;-62
2021/10/17 08:59:32;;;;;;;20.17;18.87;;;12.70;99.90;;;;;;5053717;28;20441;-64
2021/10/17 09:01:59;;;;;;;20.30;18.90;;;12.90;99.90;;;;;;5053945;28;20440;-63
2021/10/17 09:04:29;;;;;;;20.47;19.17;;;13.00;99.90;;;;;;5053752;28;20440;-63
2021/10/17 09:06:56;;;;;;;20.37;19.03;;;13.20;99.90;;;;;;5053831;28;20462;-64
2021/10/17 09:09:22;;;;;;;19.03;18.10;;;13.20;99.90;;;;;;5053556;28;20833;-64
2021/10/17 09:11:51;;;;;;;20.87;19.57;;;13.10;99.90;;;;;;5053745;28;20455;-63
2021/10/17 09:14:19;;;;;;;24.63;22.57;;;13.30;99.90;;;;;;5053487;28;20829;-64
2021/10/17 09:16:48;;;;;;;21.50;20.10;;;13.40;99.90;;;;;;5053205;28;20455;-63
2021/10/17 09:19:23;;;;;;;20.90;19.80;;;13.40;99.90;;;;;;5053461;28;20440;-64
2021/10/17 09:22:00;;;;;;;22.17;20.57;;;13.70;99.90;;;;;;5053711;28;20531;-63
2021/10/17 09:24:29;;;;;;;21.33;19.87;;;13.90;99.90;;;;;;5053550;28;20824;-64
2021/10/17 09:27:08;;;;;;;21.67;20.30;;;14.20;99.90;;;;;;5053405;28;20464;-64
2021/10/17 09:29:37;;;;;;;21.40;20.07;;;14.30;99.90;;;;;;5053264;28;20491;-64
2021/10/17 09:32:11;;;;;;;22.43;20.67;;;14.40;99.90;;;;;;5053351;28;20445;-64
2021/10/17 09:34:38;;;;;;;24.03;22.03;;;14.50;99.90;;;;;;5053374;28;20540;-63
2021/10/17 09:37:11;;;;;;;22.53;21.00;;;14.40;99.90;;;;;;5053294;28;20467;-64
2021/10/17 09:39:41;;;;;;;21.47;20.20;;;14.60;99.90;;;;;;5053163;28;20447;-63
2021/10/17 09:42:08;;;;;;;22.33;20.70;;;14.70;99.90;;;;;;5053263;28;20478;-63
2021/10/17 09:44:39;;;;;;;21.60;20.20;;;14.90;99.90;;;;;;5053306;28;20510;-64
2021/10/17 09:47:06;;;;;;;23.13;21.53;;;15.20;99.90;;;;;;5053035;28;20456;-63
2021/10/17 09:49:32;;;;;;;22.13;20.40;;;15.30;99.90;;;;;;5052661;28;21053;-63
2021/10/17 09:52:15;;;;;;;20.80;19.60;;;15.30;99.90;;;;;;5052985;28;20851;-64
2021/10/17 09:54:44;;;;;;;22.10;20.80;;;15.40;99.90;;;;;;5052947;28;20443;-64
2021/10/17 09:57:11;;;;;;;22.27;21.10;;;15.60;99.90;;;;;;5052842;28;20863;-64
2021/10/17 09:59:38;;;;;;;22.70;21.37;;;15.90;99.90;;;;;;5051921;28;20440;-63
2021/10/17 10:02:08;;;;;;;22.70;21.40;;;16.10;99.90;;;;;;5052794;28;20929;-63
2021/10/17 10:04:38;;;;;;;22.40;21.10;;;16.10;99.90;;;;;;5052844;28;20480;-63
2021/10/17 10:07:06;;;;;;;22.63;21.23;;;16.10;99.90;;;;;;5052669;28;20456;-63
2021/10/17 10:09:34;;;;;;;22.60;21.00;;;16.20;99.20;;;;;;5052373;28;20486;-63
2021/10/17 10:12:03;;;;;;;22.57;21.07;;;16.30;99.20;;;;;;5052695;28;20455;-63
2021/10/17 10:14:31;;;;;;;21.77;20.50;;;16.30;98.60;;;;;;5052572;28;20440;-63
2021/10/17 10:19:25;;;;;;;22.10;21.00;;;16.40;98.70;;;;;;5108913;22;20497;-63
2021/10/17 10:21:52;;;;;;;22.80;21.30;;;16.40;98.30;;;;;;5100948;28;20208;-66
2021/10/17 10:24:20;;;;;;;22.13;20.80;;;16.30;97.40;;;;;;5099536;28;20445;-67
2021/10/17 10:26:53;;;;;;;23.00;21.33;;;16.40;98.60;;;;;;5100512;28;20788;-67
2021/10/17 10:29:28;;;;;;;22.40;20.90;;;16.50;98.30;;;;;;5092241;28;20894;-65
2021/10/17 10:31:56;;;;;;;22.37;20.70;;;16.60;97.40;;;;;;5092446;28;20449;-65
2021/10/17 10:34:53;;;;;;;21.53;20.30;;;16.70;97.40;;;;;;5092625;28;20442;-65
2021/10/17 10:37:22;;;;;;;22.53;20.90;;;16.90;96.70;;;;;;5057627;28;21040;-65
2021/10/17 10:40:12;;;;;;;23.13;21.67;;;17.00;96.10;;;;;;5092047;28;20434;-64
2021/10/17 10:42:42;;;;;;;24.23;22.30;;;17.20;95.70;;;;;;5092397;28;20445;-64
2021/10/17 10:45:30;;;;;;;21.63;20.40;;;17.40;95.90;;;;;;5092204;28;20442;-65
2021/10/17 10:48:16;;;;;;;21.33;20.03;;;17.70;94.40;;;;;;5092065;28;20455;-65
2021/10/17 10:50:46;;;;;;;22.40;21.10;;;18.10;92.80;;;;;;5092092;28;20442;-65
2021/10/17 10:53:33;;;;;;;22.60;21.30;;;18.50;91.80;;;;;;5092335;28;20443;-64
2021/10/17 10:56:00;;;;;;;21.80;20.47;;;18.70;88.30;;;;;;5092029;28;20442;-64
2021/10/17 10:58:32;;;;;;;22.37;20.97;;;19.00;85.40;;;;;;5091739;28;20580;-65
2021/10/17 11:00:59;;;;;;;23.77;22.37;;;19.30;81.70;;;;;;5094887;28;20473;-67
2021/10/17 11:03:26;;;;;;;24.53;23.13;;;19.60;78.30;;;;;;5095175;28;20453;-64
2021/10/17 11:06:19;;;;;;;24.17;22.60;;;20.20;78.30;;;;;;5093182;28;20473;-67
2021/10/17 11:09:24;;;;;;;23.93;22.37;;;20.70;76.00;;;;;;5095682;28;20998;-67
2021/10/17 11:11:51;;;;;;;24.27;22.77;;;21.00;71.10;;;;;;5095546;28;20849;-65
2021/10/17 11:14:19;;;;;;;25.30;23.80;;;21.40;68.70;;;;;;5091896;28;20513;-65
2021/10/17 11:16:45;;;;;;;26.13;24.23;;;21.40;66.00;;;;;;5091653;28;20927;-64
2021/10/17 11:19:12;;;;;;;24.97;23.23;;;21.80;65.20;;;;;;5091430;28;20478;-64
2021/10/17 11:21:39;;;;;;;26.43;24.83;;;22.10;63.90;;;;;;5096197;28;20442;-67
2021/10/17 11:24:06;;;;;;;24.57;23.47;;;22.30;62.00;;;;;;5097298;28;20449;-66
2021/10/17 11:26:33;;;;;;;24.93;23.70;;;22.60;60.70;;;;;;5092013;28;20454;-64
2021/10/17 11:29:00;;;;;;;25.33;23.60;;;22.80;59.80;;;;;;5091318;28;20986;-64
2021/10/17 11:31:29;;;;;;;24.87;23.50;;;22.30;60.10;;;;;;5092590;28;20449;-66
2021/10/17 11:33:57;;;;;;;25.60;24.27;;;22.90;59.10;;;;;;5094377;28;20469;-64
2021/10/17 11:36:24;;;;;;;26.03;24.50;;;23.60;58.00;;;;;;5096462;28;20450;-64
2021/10/17 11:38:54;;;;;;;23.83;22.73;;;24.40;56.20;;;;;;5091278;28;20459;-64
2021/10/17 11:41:21;;;;;;;24.93;23.63;;;24.40;54.10;;;;;;5091689;28;20482;-66
2021/10/17 11:43:50;;;;;;;23.47;22.27;;;24.20;53.90;;;;;;5091470;28;20894;-65
2021/10/17 11:46:18;;;;;;;24.83;23.53;;;23.60;52.90;;;;;;5091514;28;20446;-65
2021/10/17 11:48:47;;;;;;;22.80;21.70;;;23.20;53.90;;;;;;5095877;28;20478;-65
2021/10/17 11:51:16;;;;;;;23.53;22.13;;;22.80;53.80;;;;;;5091632;28;20508;-65
2021/10/17 11:53:43;;;;;;;23.20;21.80;;;22.90;54.10;;;;;;5092405;28;20446;-66
2021/10/17 11:56:11;;;;;;;24.70;23.20;;;22.80;53.50;;;;;;5093337;28;20445;-64
2021/10/17 11:58:39;;;;;;;23.97;22.70;;;22.30;53.70;;;;;;5091146;28;21085;-64
2021/10/17 12:01:12;;;;;;;23.67;22.27;;;22.00;54.30;;;;;;5092017;28;20446;-66
2021/10/17 12:03:40;;;;;;;23.43;22.33;;;21.90;54.20;;;;;;5092089;28;20808;-65
2021/10/17 12:06:14;;;;;;;23.77;22.10;;;21.60;54.00;;;;;;5092645;28;20442;-65
2021/10/17 12:08:41;;;;;;;23.27;22.07;;;21.80;54.40;;;;;;5091025;28;20492;-65
2021/10/17 12:11:10;;;;;;;23.67;22.50;;;21.80;54.10;;;;;;5091208;28;20818;-65
2021/10/17 12:13:42;;;;;;;22.43;20.83;;;21.90;53.80;;;;;;5091222;28;20923;-65
2021/10/17 12:16:10;;;;;;;22.63;21.40;;;22.00;54.30;;;;;;5091285;28;20954;-65
2021/10/17 12:18:42;;;;;;;23.53;22.20;;;21.80;54.50;;;;;;5090907;28;20479;-64
2021/10/17 12:21:11;;;;;;;23.30;21.70;;;21.70;54.40;;;;;;5091296;28;20450;-63
2021/10/17 12:23:39;;;;;;;22.50;21.40;;;21.60;54.10;;;;;;5093528;28;20795;-65
2021/10/17 12:26:06;;;;;;;23.60;21.87;;;21.50;54.70;;;;;;5094888;28;20473;-65
2021/10/17 12:28:33;;;;;;;22.00;20.90;;;21.70;55.40;;;;;;5094415;28;20465;-65
2021/10/17 12:31:00;;;;;;;23.93;22.60;;;21.50;54.60;;;;;;5094637;28;20478;-65
2021/10/17 12:33:33;;;;;;;22.00;20.77;;;21.50;54.80;;;;;;5094893;28;20438;-65
2021/10/17 12:36:01;;;;;;;23.80;22.43;;;21.50;55.20;;;;;;5094836;28;20446;-65
2021/10/17 12:38:34;;;;;;;22.33;21.20;;;21.60;55.10;;;;;;5094490;28;20471;-65
2021/10/17 12:41:04;;;;;;;21.93;21.03;;;21.60;55.00;;;;;;5094658;28;20469;-65